Time;durP1;ratioP1;P1;durP2;ratioP2;P2;SDS_P1;SDS_P2;PMS_P1;PMS_P2;Temp;Humidity;BMP_temperature;BMP_pressure;BME280_temperature;BME280_humidity;BME280_pressure;Samples;Min_cycle;Max_cycle;Signal;HPM_P1;HPM_P2
2023/06/09 00:00:04;;;;;;;12.48;3.60;;;;;;;18.05;64.12;101266.97;4964016;28;20132;-87
2023/06/09 00:02:30;;;;;;;11.32;3.67;;;;;;;18.06;63.61;101263.97;4980087;28;20125;-87
2023/06/09 00:04:56;;;;;;;11.07;4.00;;;;;;;18.00;63.28;101264.16;4963525;28;20146;-87
2023/06/09 00:07:22;;;;;;;6.18;3.35;;;;;;;17.96;63.50;101258.34;4995749;28;20054;-87
2023/06/09 00:09:47;;;;;;;10.00;3.40;;;;;;;17.91;63.51;101261.03;4980229;28;20077;-87
2023/06/09 00:12:13;;;;;;;7.87;3.40;;;;;;;17.94;63.57;101262.41;4980065;28;20034;-87
2023/06/09 00:14:40;;;;;;;6.93;3.80;;;;;;;17.88;63.89;101262.34;4997026;28;20272;-87
2023/06/09 00:17:08;;;;;;;7.45;3.50;;;;;;;17.84;64.09;101255.69;4995824;28;20046;-86
2023/06/09 00:19:34;;;;;;;6.35;3.08;;;;;;;17.78;64.08;101261.38;4979851;28;20030;-87
2023/06/09 00:22:01;;;;;;;9.10;3.67;;;;;;;17.74;64.67;101252.00;4995803;28;20046;-87
2023/06/09 00:24:26;;;;;;;6.80;3.67;;;;;;;17.67;65.23;101254.91;4979639;28;20061;-87
2023/06/09 00:26:52;;;;;;;7.67;3.73;;;;;;;17.65;65.40;101257.91;4979537;28;20082;-86
2023/06/09 00:29:21;;;;;;;12.85;3.85;;;;;;;17.58;65.15;101251.75;4995656;28;20058;-87
2023/06/09 00:31:46;;;;;;;8.87;3.30;;;;;;;17.58;65.24;101260.00;4996609;28;20161;-87
2023/06/09 00:34:12;;;;;;;8.75;3.42;;;;;;;17.53;64.88;101251.69;4995658;28;20129;-87
2023/06/09 00:36:37;;;;;;;5.87;3.50;;;;;;;17.50;65.39;101260.44;4994948;28;20038;-85
2023/06/09 00:39:06;;;;;;;11.00;3.80;;;;;;;17.46;64.58;101256.53;4979256;28;20042;-85
2023/06/09 00:41:36;;;;;;;12.32;3.40;;;;;;;17.39;65.54;101253.13;4996562;28;20026;-85
2023/06/09 00:44:02;;;;;;;10.13;3.67;;;;;;;17.35;66.36;101252.81;4995713;28;20034;-85
2023/06/09 00:46:27;;;;;;;7.17;3.57;;;;;;;17.32;65.04;101251.41;4979166;28;20035;-86
2023/06/09 00:48:53;;;;;;;8.45;3.75;;;;;;;17.27;64.61;101254.06;4979188;28;20038;-86
2023/06/09 00:51:18;;;;;;;9.93;3.77;;;;;;;17.23;65.91;101255.66;4994979;28;20034;-85
2023/06/09 00:53:44;;;;;;;7.70;3.70;;;;;;;17.22;65.41;101251.22;4995088;28;20368;-86
2023/06/09 00:56:09;;;;;;;8.53;3.47;;;;;;;17.20;64.51;101250.66;4996801;28;20463;-85
2023/06/09 00:58:35;;;;;;;10.60;4.22;;;;;;;17.14;65.76;101247.00;4996652;28;20058;-85
2023/06/09 01:01:01;;;;;;;7.55;3.47;;;;;;;17.11;65.44;101252.13;4995046;28;20390;-86
2023/06/09 01:03:32;;;;;;;5.90;3.30;;;;;;;17.07;65.98;101253.75;4996099;28;20545;-85
2023/06/09 01:06:26;;;;;;;13.32;4.40;;;;;;;17.01;64.55;101255.56;4996895;28;20046;-85
2023/06/09 01:09:02;;;;;;;8.05;3.72;;;;;;;16.96;65.96;101244.50;4960377;28;20050;-84
2023/06/09 01:11:53;;;;;;;11.77;3.63;;;;;;;16.93;66.23;101242.25;4996262;28;20041;-86
2023/06/09 01:14:28;;;;;;;13.57;3.72;;;;;;;16.89;65.72;101250.16;4995249;28;20544;-85
2023/06/09 01:17:07;;;;;;;8.88;3.42;;;;;;;16.87;65.92;101237.75;4995048;28;20398;-85
2023/06/09 01:19:40;;;;;;;7.50;3.20;;;;;;;16.80;66.24;101232.41;4995114;28;20502;-85
2023/06/09 01:22:23;;;;;;;7.70;3.92;;;;;;;16.77;66.02;101238.38;4995577;28;20104;-85
2023/06/09 01:25:17;;;;;;;9.63;3.67;;;;;;;16.76;65.57;101234.00;4995581;28;20062;-85
2023/06/09 01:27:44;;;;;;;8.85;3.80;;;;;;;16.73;66.50;101232.59;4995200;28;20037;-85
2023/06/09 01:30:11;;;;;;;8.55;3.75;;;;;;;16.68;66.69;101224.25;4995244;28;20463;-85
2023/06/09 01:32:39;;;;;;;9.65;3.60;;;;;;;16.67;67.04;101230.84;4994802;28;20030;-86
2023/06/09 01:35:06;;;;;;;10.70;3.72;;;;;;;16.65;67.23;101220.13;4994510;28;20434;-85
2023/06/09 01:37:32;;;;;;;7.63;3.40;;;;;;;16.60;66.86;101235.63;4961828;28;20026;-85
2023/06/09 01:39:58;;;;;;;8.98;3.40;;;;;;;16.57;66.94;101231.47;4995187;28;20030;-85
2023/06/09 01:42:24;;;;;;;10.03;3.60;;;;;;;16.53;67.02;101234.97;4978763;28;20104;-85
2023/06/09 01:44:50;;;;;;;9.82;3.72;;;;;;;16.47;67.10;101226.63;4995639;28;20057;-85
2023/06/09 01:47:18;;;;;;;9.93;4.00;;;;;;;16.44;67.20;101231.78;4994478;28;20031;-85
2023/06/09 01:50:17;;;;;;;12.30;5.05;;;;;;;16.42;65.86;101236.69;4978406;28;20026;-85
2023/06/09 01:52:51;;;;;;;8.10;3.63;;;;;;;16.35;67.22;101236.00;4962514;28;20049;-85
2023/06/09 01:55:24;;;;;;;10.65;3.83;;;;;;;16.33;68.24;101235.41;4995156;28;20042;-85
2023/06/09 01:58:23;;;;;;;12.30;3.78;;;;;;;16.29;67.27;101235.88;4996008;28;20034;-86
2023/06/09 02:00:50;;;;;;;10.30;3.93;;;;;;;16.24;68.18;101227.59;4983815;28;20053;-85
2023/06/09 02:03:20;;;;;;;8.93;3.95;;;;;;;16.21;67.97;101232.69;4994099;28;20038;-85
2023/06/09 02:05:46;;;;;;;9.75;4.25;;;;;;;16.14;69.25;101239.16;4995429;28;20502;-86
2023/06/09 02:08:13;;;;;;;8.07;4.00;;;;;;;16.11;69.45;101230.63;4993606;28;20030;-85
2023/06/09 02:10:40;;;;;;;7.88;4.15;;;;;;;16.07;69.30;101227.50;4995093;28;20039;-85
2023/06/09 02:13:13;;;;;;;10.70;3.73;;;;;;;16.04;69.29;101224.44;4994696;28;20080;-85
2023/06/09 02:15:42;;;;;;;10.20;4.15;;;;;;;16.02;70.41;101216.47;4993390;28;20034;-85
2023/06/09 02:18:10;;;;;;;12.35;4.03;;;;;;;15.97;69.13;101210.88;4993879;28;20022;-85
2023/06/09 02:20:35;;;;;;;11.45;4.00;;;;;;;15.95;69.54;101208.41;4995229;28;20023;-85
2023/06/09 02:23:01;;;;;;;11.50;4.07;;;;;;;15.93;70.48;101213.28;4977559;28;20077;-84
2023/06/09 02:25:28;;;;;;;9.67;3.90;;;;;;;15.93;71.39;101216.03;4977408;28;20125;-84
2023/06/09 02:27:54;;;;;;;10.93;3.97;;;;;;;15.85;70.12;101210.91;4993928;28;20513;-85
2023/06/09 02:30:19;;;;;;;10.00;3.63;;;;;;;15.83;70.81;101213.06;4977104;28;20137;-85
2023/06/09 02:32:45;;;;;;;12.30;3.67;;;;;;;15.84;71.26;101216.63;4994475;28;20030;-85
2023/06/09 02:35:13;;;;;;;11.43;3.92;;;;;;;15.80;71.22;101216.31;4961200;28;20030;-85
2023/06/09 02:37:41;;;;;;;11.40;3.90;;;;;;;15.74;71.67;101215.31;4993391;28;20085;-85
2023/06/09 02:40:08;;;;;;;12.13;3.85;;;;;;;15.71;71.58;101215.81;4978193;28;20034;-85
2023/06/09 02:42:34;;;;;;;10.93;3.80;;;;;;;15.70;71.95;101213.31;4993402;28;20046;-85
2023/06/09 02:45:00;;;;;;;7.88;3.40;;;;;;;15.67;72.17;101206.41;4993240;28;20022;-84
2023/06/09 02:47:26;;;;;;;11.37;3.60;;;;;;;15.64;72.33;101211.53;4977786;28;20069;-85
2023/06/09 02:49:51;;;;;;;12.50;4.13;;;;;;;15.59;72.02;101209.53;4994217;28;20030;-85
2023/06/09 02:52:17;;;;;;;9.00;3.83;;;;;;;15.56;71.68;101208.09;4977589;28;20142;-85
2023/06/09 02:54:43;;;;;;;10.20;4.07;;;;;;;15.53;72.25;101207.75;4960841;28;20034;-85
2023/06/09 02:57:09;;;;;;;8.32;4.18;;;;;;;15.48;72.87;101208.47;4977005;28;20022;-84
2023/06/09 02:59:34;;;;;;;10.27;3.67;;;;;;;15.44;72.53;101208.13;4994353;28;20041;-84
2023/06/09 03:02:00;;;;;;;8.33;3.70;;;;;;;15.39;72.94;101207.16;4976620;28;20034;-85
2023/06/09 03:04:25;;;;;;;15.43;4.30;;;;;;;15.37;72.31;101207.41;4991866;28;20085;-85
2023/06/09 03:06:53;;;;;;;10.73;4.23;;;;;;;15.34;72.61;101202.41;4977238;28;20285;-85
2023/06/09 03:09:19;;;;;;;9.65;4.18;;;;;;;15.33;72.64;101210.88;4976785;28;20035;-85
2023/06/09 03:11:47;;;;;;;13.67;4.27;;;;;;;15.31;72.79;101213.84;4992903;28;20038;-85
2023/06/09 03:14:13;;;;;;;16.65;5.22;;;;;;;15.29;72.98;101217.88;4993029;28;20463;-85
2023/06/09 03:16:39;;;;;;;12.88;4.50;;;;;;;15.27;73.23;101215.38;4960764;28;20026;-85
2023/06/09 03:19:05;;;;;;;11.00;3.80;;;;;;;15.25;73.83;101226.56;4992915;28;20042;-85
2023/06/09 03:21:35;;;;;;;8.65;4.30;;;;;;;15.24;75.02;101222.16;4992940;28;20035;-85
2023/06/09 03:24:06;;;;;;;8.67;4.43;;;;;;;15.22;74.48;101221.56;4992975;28;20034;-85
2023/06/09 03:26:31;;;;;;;8.32;4.00;;;;;;;15.21;74.54;101225.34;4992895;28;20027;-85
2023/06/09 03:28:57;;;;;;;11.48;4.28;;;;;;;15.17;74.40;101223.34;4993659;28;20080;-85
2023/06/09 03:31:22;;;;;;;11.43;4.10;;;;;;;15.16;74.17;101217.03;4992974;28;20026;-85
2023/06/09 03:33:48;;;;;;;11.97;4.30;;;;;;;15.17;74.15;101226.06;4994046;28;20072;-85
2023/06/09 03:36:13;;;;;;;12.23;4.50;;;;;;;15.13;74.14;101222.97;4992563;28;20393;-85
2023/06/09 03:38:43;;;;;;;12.23;4.63;;;;;;;15.13;75.11;101224.88;4993026;28;20451;-85
2023/06/09 03:41:09;;;;;;;11.07;4.38;;;;;;;15.15;75.66;101222.75;4977233;28;20481;-85
2023/06/09 03:43:37;;;;;;;12.83;4.73;;;;;;;15.17;75.05;101215.94;4993057;28;20093;-85
2023/06/09 03:46:02;;;;;;;10.45;4.65;;;;;;;15.14;74.86;101224.63;4977176;28;20470;-85
2023/06/09 03:48:28;;;;;;;13.47;4.80;;;;;;;15.12;74.99;101240.44;4992937;28;20036;-85
2023/06/09 03:50:58;;;;;;;10.73;4.30;;;;;;;15.14;75.65;101241.03;4992397;28;20368;-85
2023/06/09 03:53:23;;;;;;;10.52;4.80;;;;;;;15.18;76.96;101253.16;4977334;28;20058;-84
2023/06/09 03:55:49;;;;;;;9.03;4.20;;;;;;;15.22;76.06;101245.31;4993857;28;20423;-85
2023/06/09 03:58:14;;;;;;;13.77;4.83;;;;;;;15.20;75.61;101242.00;4993534;28;20034;-85
2023/06/09 04:00:40;;;;;;;13.30;4.72;;;;;;;15.19;76.11;101241.16;4992877;28;20027;-85
2023/06/09 04:03:09;;;;;;;14.53;5.03;;;;;;;15.22;75.68;101245.31;4993819;28;20035;-85
2023/06/09 04:05:38;;;;;;;14.07;4.55;;;;;;;15.22;76.57;101246.16;4992230;28;20060;-84
2023/06/09 04:08:03;;;;;;;14.48;4.40;;;;;;;15.22;76.84;101250.78;4992981;28;20038;-85
2023/06/09 04:10:29;;;;;;;10.73;4.33;;;;;;;15.24;76.82;101245.91;4994279;28;20398;-85
2023/06/09 04:12:57;;;;;;;13.18;5.07;;;;;;;15.23;77.67;101245.06;4992094;28;20037;-85
2023/06/09 04:15:23;;;;;;;9.60;4.90;;;;;;;15.24;77.20;101251.38;4977572;28;20027;-85
2023/06/09 04:17:48;;;;;;;11.40;5.07;;;;;;;15.23;76.55;101241.50;4996443;28;20356;-85
2023/06/09 04:20:14;;;;;;;13.23;5.37;;;;;;;15.22;77.12;101248.03;4979791;28;20457;-85
2023/06/09 04:22:49;;;;;;;14.00;5.00;;;;;;;15.27;76.95;101251.72;4980444;28;20034;-84
2023/06/09 04:25:15;;;;;;;12.23;4.93;;;;;;;15.30;77.64;101250.44;4995535;28;20026;-84
2023/06/09 04:27:42;;;;;;;11.05;5.63;;;;;;;15.30;76.55;101253.16;4995876;28;20088;-85
2023/06/09 04:30:09;;;;;;;12.75;5.10;;;;;;;15.33;76.48;101247.22;4996884;28;20033;-85
2023/06/09 04:32:34;;;;;;;10.45;5.82;;;;;;;15.32;76.67;101253.75;4963186;28;20034;-85
2023/06/09 04:35:01;;;;;;;13.73;5.53;;;;;;;15.34;76.77;101256.25;4995404;28;20497;-84
2023/06/09 04:37:26;;;;;;;12.63;5.25;;;;;;;15.37;76.40;101253.88;4979355;28;20061;-85
2023/06/09 04:39:52;;;;;;;13.03;5.67;;;;;;;15.38;76.43;101258.28;4979399;28;20132;-85
2023/06/09 04:42:22;;;;;;;14.60;5.47;;;;;;;15.43;77.21;101254.84;4995273;28;20042;-85
2023/06/09 04:44:49;;;;;;;12.50;5.32;;;;;;;15.50;76.92;101260.19;4996001;28;20149;-85
2023/06/09 04:47:18;;;;;;;10.90;5.57;;;;;;;15.53;76.54;101251.50;4979370;28;20100;-85
2023/06/09 04:49:47;;;;;;;14.45;6.20;;;;;;;15.52;76.57;101250.66;4978935;28;20065;-85
2023/06/09 04:52:20;;;;;;;16.63;5.95;;;;;;;15.56;76.37;101254.59;4997193;28;20042;-85
2023/06/09 04:54:49;;;;;;;12.45;5.95;;;;;;;15.59;76.42;101253.28;4995578;28;20467;-85
2023/06/09 04:57:17;;;;;;;12.70;5.57;;;;;;;15.64;76.34;101258.03;4996411;28;20034;-84
2023/06/09 04:59:45;;;;;;;14.90;5.83;;;;;;;15.69;76.50;101258.97;4995384;28;20541;-85
2023/06/09 05:02:11;;;;;;;11.90;5.97;;;;;;;15.72;75.99;101263.97;4995159;28;20034;-85
2023/06/09 05:04:36;;;;;;;10.75;5.97;;;;;;;15.78;76.94;101260.31;4996306;28;20050;-85
2023/06/09 05:07:05;;;;;;;12.67;6.07;;;;;;;15.82;75.83;101257.09;4994716;28;20061;-85
2023/06/09 05:09:30;;;;;;;15.75;6.35;;;;;;;15.86;76.01;101258.28;4994917;28;20037;-85
2023/06/09 05:11:56;;;;;;;13.67;6.00;;;;;;;15.93;76.21;101264.47;4995983;28;20034;-85
2023/06/09 05:14:21;;;;;;;15.13;5.57;;;;;;;15.97;75.40;101265.63;4994912;28;20057;-85
2023/06/09 05:16:46;;;;;;;16.37;5.70;;;;;;;16.01;75.88;101261.34;4978580;28;20470;-85
2023/06/09 05:19:12;;;;;;;13.13;5.63;;;;;;;16.03;75.74;101264.66;4962543;28;20073;-85
2023/06/09 05:21:38;;;;;;;12.67;5.30;;;;;;;16.06;75.40;101260.59;4962766;28;20096;-85
2023/06/09 05:24:05;;;;;;;17.10;5.90;;;;;;;16.06;75.85;101255.97;4994302;28;20125;-85
2023/06/09 05:26:30;;;;;;;10.68;5.82;;;;;;;16.11;75.47;101272.50;4977991;28;20130;-84
2023/06/09 05:28:56;;;;;;;15.43;5.77;;;;;;;16.18;75.62;101269.63;4977691;28;20129;-84
2023/06/09 05:31:23;;;;;;;16.23;6.40;;;;;;;16.23;75.23;101269.72;4978223;28;20478;-88
2023/06/09 05:33:54;;;;;;;18.08;6.18;;;;;;;16.32;75.63;101272.91;4994946;28;20066;-89
2023/06/09 05:36:20;;;;;;;16.05;5.68;;;;;;;16.40;75.69;101266.19;4995096;28;20065;-87
2023/06/09 05:38:45;;;;;;;12.73;5.77;;;;;;;16.47;75.21;101264.16;4978945;28;20454;-85
2023/06/09 05:41:14;;;;;;;12.90;6.07;;;;;;;16.65;74.54;101263.09;4994226;28;20471;-86
2023/06/09 05:43:40;;;;;;;13.13;5.60;;;;;;;16.74;74.73;101260.81;4994186;28;20273;-86
2023/06/09 05:46:05;;;;;;;13.70;5.80;;;;;;;16.83;74.34;101271.13;4994294;28;20375;-87
2023/06/09 05:48:30;;;;;;;13.37;6.03;;;;;;;16.87;74.41;101276.97;4977852;28;20109;-85
2023/06/09 05:50:57;;;;;;;14.50;5.77;;;;;;;16.91;74.09;101275.41;4993791;28;20030;-86
2023/06/09 05:53:24;;;;;;;19.92;6.07;;;;;;;16.99;74.09;101268.66;4993770;28;20038;-84
2023/06/09 05:55:52;;;;;;;13.38;6.25;;;;;;;17.01;74.18;101264.59;4993668;28;20030;-83
2023/06/09 05:58:18;;;;;;;15.33;6.30;;;;;;;17.01;74.46;101274.75;4995752;28;20035;-82
2023/06/09 06:00:44;;;;;;;14.52;6.35;;;;;;;17.05;74.65;101270.44;4962236;28;20042;-83
2023/06/09 06:03:11;;;;;;;19.10;6.63;;;;;;;17.09;75.17;101270.75;4977853;28;20420;-82
2023/06/09 06:05:39;;;;;;;15.35;6.25;;;;;;;17.15;74.85;101267.84;4995192;28;20042;-83
2023/06/09 06:08:08;;;;;;;13.02;6.72;;;;;;;17.21;74.41;101266.03;4995098;28;20034;-83
2023/06/09 06:10:33;;;;;;;15.85;6.18;;;;;;;17.29;74.33;101262.06;4977844;28;20061;-84
2023/06/09 06:13:01;;;;;;;15.67;6.70;;;;;;;17.32;75.14;101264.28;4961262;28;20476;-84
2023/06/09 06:15:27;;;;;;;16.45;7.30;;;;;;;17.37;74.75;101264.34;4993330;28;20049;-84
2023/06/09 06:17:52;;;;;;;14.33;6.70;;;;;;;17.41;74.79;101260.03;4993328;28;20456;-84
2023/06/09 06:20:18;;;;;;;13.17;6.60;;;;;;;17.48;74.64;101265.31;4993056;28;20065;-84
2023/06/09 06:22:44;;;;;;;16.00;6.50;;;;;;;17.57;74.34;101268.47;4993327;28;20049;-84
2023/06/09 06:25:13;;;;;;;16.87;7.23;;;;;;;17.65;74.69;101271.63;4993531;28;20042;-82
2023/06/09 06:27:42;;;;;;;19.85;7.50;;;;;;;17.75;74.78;101272.88;4993464;28;20044;-86
2023/06/09 06:30:08;;;;;;;24.48;8.32;;;;;;;17.88;74.44;101269.75;4994401;28;20034;-85
2023/06/09 06:32:49;;;;;;;15.98;7.68;;;;;;;17.97;73.97;101262.75;4994265;28;20034;-85
2023/06/09 06:35:24;;;;;;;14.23;7.67;;;;;;;18.03;73.52;101267.22;4993859;28;20038;-85
2023/06/09 06:37:49;;;;;;;16.23;7.25;;;;;;;18.17;73.73;101269.59;4993337;28;20061;-85
2023/06/09 06:40:15;;;;;;;14.45;7.60;;;;;;;18.29;72.84;101263.94;4977384;28;20058;-84
2023/06/09 06:42:43;;;;;;;17.83;7.80;;;;;;;18.33;72.91;101271.41;4993390;28;20026;-85
2023/06/09 06:45:09;;;;;;;12.73;7.35;;;;;;;18.41;73.34;101276.47;4993112;28;20038;-85
2023/06/09 06:47:35;;;;;;;20.90;7.80;;;;;;;18.48;72.74;101268.00;4994364;28;20382;-85
2023/06/09 06:50:01;;;;;;;18.95;8.07;;;;;;;18.54;72.71;101269.75;4993569;28;20037;-84
2023/06/09 06:52:26;;;;;;;14.27;7.80;;;;;;;18.61;72.42;101269.53;4993067;28;20495;-84
2023/06/09 06:54:52;;;;;;;23.30;7.90;;;;;;;18.66;73.10;101269.59;4992873;28;20030;-83
2023/06/09 06:57:17;;;;;;;16.40;7.43;;;;;;;18.73;72.10;101272.13;4994026;28;20445;-84
2023/06/09 06:59:43;;;;;;;18.57;7.87;;;;;;;18.79;71.84;101268.31;4976497;28;20545;-84
2023/06/09 07:02:08;;;;;;;13.90;7.60;;;;;;;18.86;71.68;101262.66;4976582;28;20030;-84
2023/06/09 07:04:34;;;;;;;16.27;8.10;;;;;;;18.89;71.89;101265.69;4976675;28;20054;-84
2023/06/09 07:06:59;;;;;;;15.53;7.80;;;;;;;18.96;71.66;101273.75;4976429;28;20479;-84
2023/06/09 07:09:27;;;;;;;14.07;8.23;;;;;;;18.99;71.91;101272.41;4976612;28;20042;-84
2023/06/09 07:11:52;;;;;;;17.90;8.45;;;;;;;19.05;71.67;101280.41;4994496;28;20034;-84
2023/06/09 07:14:18;;;;;;;15.37;8.53;;;;;;;19.09;71.53;101278.00;4976509;28;20041;-84
2023/06/09 07:16:43;;;;;;;14.83;8.03;;;;;;;19.17;70.66;101273.91;4993464;28;20042;-84
2023/06/09 07:19:11;;;;;;;20.33;8.87;;;;;;;19.25;70.50;101281.66;4960666;28;20317;-83
2023/06/09 07:21:37;;;;;;;16.85;8.73;;;;;;;19.29;70.26;101282.81;4960294;28;20479;-84
2023/06/09 07:24:05;;;;;;;16.63;8.43;;;;;;;19.39;69.82;101279.31;4976583;28;20035;-84
2023/06/09 07:26:32;;;;;;;16.60;8.02;;;;;;;19.44;69.66;101279.34;4977007;28;20100;-84
2023/06/09 07:28:58;;;;;;;16.92;8.23;;;;;;;19.51;70.19;101279.13;4994027;28;20116;-84
2023/06/09 07:31:23;;;;;;;17.90;8.23;;;;;;;19.57;69.86;101278.06;4977114;28;20062;-84
2023/06/09 07:33:48;;;;;;;18.00;8.43;;;;;;;19.66;70.02;101278.38;4992793;28;20034;-84
2023/06/09 07:36:14;;;;;;;15.83;8.20;;;;;;;19.73;69.35;101282.53;4976487;28;20505;-84
2023/06/09 07:38:43;;;;;;;17.38;8.45;;;;;;;19.82;69.62;101280.16;4992295;28;20030;-84
2023/06/09 07:41:11;;;;;;;21.13;8.43;;;;;;;19.89;70.42;101280.75;4993925;28;20070;-84
2023/06/09 07:43:37;;;;;;;16.87;8.80;;;;;;;20.00;69.61;101275.28;4992495;28;20030;-84
2023/06/09 07:46:02;;;;;;;14.27;8.38;;;;;;;20.07;68.79;101287.72;4960480;28;20037;-84
2023/06/09 07:48:28;;;;;;;16.47;8.33;;;;;;;20.15;68.56;101283.59;4992618;28;20114;-83
2023/06/09 07:50:56;;;;;;;17.73;7.70;;;;;;;20.24;68.47;101279.25;4995706;28;20442;-84
2023/06/09 07:53:22;;;;;;;14.63;7.47;;;;;;;20.35;67.13;101274.59;4964501;28;20081;-83
2023/06/09 07:55:48;;;;;;;15.93;7.63;;;;;;;20.45;66.67;101279.31;4995910;28;20026;-84
2023/06/09 07:58:16;;;;;;;14.55;8.02;;;;;;;20.53;66.51;101269.69;4996263;28;20034;-84
2023/06/09 08:00:41;;;;;;;14.70;7.85;;;;;;;20.60;65.80;101273.00;4996097;28;20443;-84
2023/06/09 08:03:10;;;;;;;16.10;7.63;;;;;;;20.67;66.06;101265.34;4996050;28;20138;-84
2023/06/09 08:05:35;;;;;;;10.55;7.03;;;;;;;20.77;65.49;101270.03;4996874;28;20065;-84
2023/06/09 08:08:01;;;;;;;13.87;7.83;;;;;;;20.89;65.69;101265.09;4995645;28;20042;-84
2023/06/09 08:10:26;;;;;;;12.68;7.82;;;;;;;21.01;64.68;101262.06;4995993;28;20040;-84
2023/06/09 08:12:54;;;;;;;13.53;7.13;;;;;;;21.08;64.51;101268.13;4995976;28;20058;-84
2023/06/09 08:15:20;;;;;;;14.18;7.55;;;;;;;21.19;63.47;101268.94;4997716;28;20030;-84
2023/06/09 08:17:46;;;;;;;14.13;7.95;;;;;;;21.27;63.57;101265.59;4996031;28;20052;-84
2023/06/09 08:20:11;;;;;;;15.37;7.07;;;;;;;21.34;63.10;101263.41;4980219;28;20443;-83
2023/06/09 08:22:37;;;;;;;14.27;8.00;;;;;;;21.42;62.92;101264.78;4997359;28;20041;-84
2023/06/09 08:25:03;;;;;;;11.73;7.33;;;;;;;21.48;62.35;101258.16;4995710;28;20096;-84
2023/06/09 08:27:28;;;;;;;11.50;7.17;;;;;;;21.57;61.71;101249.31;4995521;28;20273;-84
2023/06/09 08:29:57;;;;;;;15.45;8.02;;;;;;;21.65;61.40;101251.50;4996317;28;20125;-84
2023/06/09 08:32:22;;;;;;;11.30;7.20;;;;;;;21.75;61.31;101245.97;4980201;28;20034;-84
2023/06/09 08:34:55;;;;;;;14.38;6.80;;;;;;;21.83;60.10;101252.84;4979235;28;20379;-86
2023/06/09 08:37:35;;;;;;;12.57;6.83;;;;;;;21.94;59.76;101256.38;4980036;28;20038;-86
2023/06/09 08:40:04;;;;;;;13.52;6.30;;;;;;;22.04;58.13;101246.13;4996808;28;20037;-84
2023/06/09 08:42:31;;;;;;;12.38;7.22;;;;;;;22.19;57.21;101249.91;4996754;28;20477;-83
2023/06/09 08:45:06;;;;;;;10.90;6.80;;;;;;;22.27;57.36;101254.03;4995045;28;20102;-84
2023/06/09 08:47:33;;;;;;;11.88;6.28;;;;;;;22.42;56.11;101249.25;4995495;28;20029;-83
2023/06/09 08:50:02;;;;;;;12.60;6.33;;;;;;;22.57;56.37;101261.34;4996863;28;20040;-85
2023/06/09 08:52:28;;;;;;;11.30;6.55;;;;;;;22.64;55.90;101255.50;4995424;28;20431;-85
2023/06/09 08:54:59;;;;;;;13.00;6.75;;;;;;;22.78;55.34;101256.50;4994874;28;20038;-84
2023/06/09 08:57:25;;;;;;;12.15;6.95;;;;;;;22.88;54.71;101252.81;4995153;28;20034;-85
2023/06/09 08:59:52;;;;;;;13.23;6.43;;;;;;;23.05;54.34;101261.53;4996327;28;20090;-84
2023/06/09 09:02:18;;;;;;;15.40;7.17;;;;;;;23.16;52.59;101248.44;4996349;28;20033;-84
2023/06/09 09:04:44;;;;;;;12.18;6.80;;;;;;;23.25;52.94;101246.72;4994967;28;20117;-84
2023/06/09 09:07:11;;;;;;;10.88;6.50;;;;;;;23.38;53.11;101247.97;4994380;28;20100;-84
2023/06/09 09:09:37;;;;;;;17.67;7.18;;;;;;;23.54;53.84;101245.88;4994890;28;20034;-84
2023/06/09 09:12:12;;;;;;;12.53;6.57;;;;;;;23.64;54.22;101248.53;4994542;28;20482;-85
2023/06/09 09:14:42;;;;;;;12.77;8.07;;;;;;;23.78;53.39;101240.34;4995382;28;20533;-84
2023/06/09 09:17:10;;;;;;;10.95;7.40;;;;;;;23.94;51.52;101237.41;4994779;28;20069;-83
2023/06/09 09:19:37;;;;;;;10.23;6.97;;;;;;;24.08;50.65;101237.50;4995729;28;20038;-85
2023/06/09 09:22:08;;;;;;;13.63;8.32;;;;;;;24.19;51.35;101233.47;4996278;28;20030;-86
2023/06/09 09:24:35;;;;;;;13.20;8.07;;;;;;;24.25;51.05;101232.28;4994574;28;20022;-83
2023/06/09 09:27:01;;;;;;;18.48;8.15;;;;;;;24.37;50.81;101234.59;4994201;28;20077;-86
2023/06/09 09:29:30;;;;;;;12.40;7.25;;;;;;;24.51;50.40;101220.81;4994354;28;20034;-86
2023/06/09 09:32:02;;;;;;;12.75;7.68;;;;;;;24.64;49.24;101231.19;4994484;28;20026;-85
2023/06/09 09:34:34;;;;;;;11.55;7.50;;;;;;;24.79;48.51;101221.78;4994707;28;20118;-87
2023/06/09 09:37:01;;;;;;;12.70;7.00;;;;;;;24.90;47.67;101222.44;4995774;28;20034;-84
2023/06/09 09:39:27;;;;;;;10.65;6.78;;;;;;;25.13;47.66;101222.63;4996129;28;20026;-86
2023/06/09 09:42:10;;;;;;;12.20;7.35;;;;;;;25.31;47.71;101218.16;4994002;28;20104;-85
2023/06/09 09:44:37;;;;;;;10.75;6.70;;;;;;;25.46;46.45;101215.06;4994341;28;20038;-86
2023/06/09 09:47:06;;;;;;;11.75;6.40;;;;;;;25.59;46.20;101221.78;4994027;28;20034;-84
2023/06/09 09:49:32;;;;;;;12.33;7.07;;;;;;;25.68;45.67;101214.34;4995853;28;20029;-88
2023/06/09 09:51:58;;;;;;;11.82;6.90;;;;;;;25.82;45.50;101213.53;4994987;28;20031;-86
2023/06/09 09:54:27;;;;;;;10.75;7.18;;;;;;;25.89;45.80;101211.97;4994378;28;20042;-84
2023/06/09 09:56:56;;;;;;;13.40;6.43;;;;;;;26.05;44.98;101211.69;4993703;28;20042;-85
2023/06/09 09:59:25;;;;;;;8.02;6.50;;;;;;;26.25;43.76;101211.22;4993897;28;20585;-83
2023/06/09 10:01:57;;;;;;;14.80;6.28;;;;;;;26.37;44.45;101218.19;4993513;28;20030;-86
2023/06/09 10:04:23;;;;;;;8.95;6.47;;;;;;;26.51;44.00;101207.81;4977398;28;20027;-82
2023/06/09 10:07:01;;;;;;;13.75;7.53;;;;;;;26.63;42.29;101198.91;4993395;28;20105;-82
2023/06/09 10:09:27;;;;;;;9.53;6.13;;;;;;;26.77;42.21;101210.03;4993811;28;20046;-82
2023/06/09 10:11:54;;;;;;;8.75;5.85;;;;;;;26.91;41.49;101204.38;4993624;28;20062;-82
2023/06/09 10:14:20;;;;;;;12.02;6.25;;;;;;;27.11;41.43;101205.81;4993097;28;20054;-82
2023/06/09 10:16:47;;;;;;;10.77;6.53;;;;;;;27.30;40.63;101202.81;4993739;28;20072;-82
2023/06/09 10:19:13;;;;;;;13.97;6.50;;;;;;;27.51;39.91;101197.50;4978065;28;20451;-82
2023/06/09 10:21:41;;;;;;;8.95;5.93;;;;;;;27.63;39.49;101194.91;4993061;28;20050;-82
2023/06/09 10:24:08;;;;;;;10.02;6.03;;;;;;;27.92;39.41;101201.03;4993260;28;20053;-82
2023/06/09 10:26:37;;;;;;;8.70;5.97;;;;;;;28.00;38.60;101205.84;4993071;28;20045;-82
2023/06/09 10:29:09;;;;;;;7.68;5.88;;;;;;;28.12;37.58;101206.03;4992674;28;20030;-83
2023/06/09 10:31:41;;;;;;;8.13;5.57;;;;;;;28.39;37.49;101200.47;4994180;28;20181;-82
2023/06/09 10:34:13;;;;;;;10.68;5.20;;;;;;;28.51;36.46;101200.66;4994061;28;20398;-82
2023/06/09 10:36:40;;;;;;;8.98;5.40;;;;;;;28.64;35.95;101193.25;4993036;28;20486;-83
2023/06/09 10:39:19;;;;;;;10.15;6.05;;;;;;;28.90;36.69;101189.63;4992968;28;20026;-82
2023/06/09 10:42:21;;;;;;;8.70;5.82;;;;;;;29.08;36.01;101194.00;4993634;28;20574;-82
2023/06/09 10:44:52;;;;;;;11.83;5.27;;;;;;;29.23;35.68;101189.84;4993933;28;20049;-82
2023/06/09 10:47:48;;;;;;;7.97;6.35;;;;;;;29.54;36.13;101180.34;4994008;28;20030;-82
2023/06/09 10:50:27;;;;;;;8.43;6.18;;;;;;;29.77;35.17;101177.28;4986300;28;20047;-82
2023/06/09 10:52:56;;;;;;;9.30;5.78;;;;;;;30.02;34.34;101167.09;4994102;28;20053;-82
2023/06/09 10:55:24;;;;;;;7.25;5.68;;;;;;;30.20;33.28;101173.38;4994612;28;20105;-82
2023/06/09 10:57:52;;;;;;;9.43;5.90;;;;;;;30.38;33.07;101180.44;4976771;28;20034;-83
2023/06/09 11:00:18;;;;;;;14.77;6.50;;;;;;;30.52;32.71;101174.59;4993141;28;20033;-83
2023/06/09 11:02:52;;;;;;;7.35;5.70;;;;;;;30.75;32.86;101172.25;4992733;28;20112;-82
2023/06/09 11:05:21;;;;;;;9.18;6.03;;;;;;;31.05;32.40;101163.69;4994009;28;20109;-82
2023/06/09 11:07:48;;;;;;;7.20;6.20;;;;;;;31.25;31.47;101173.16;4993247;28;20032;-82
2023/06/09 11:10:14;;;;;;;7.23;5.67;;;;;;;31.59;30.49;101168.28;4993792;28;20036;-83
2023/06/09 11:12:39;;;;;;;8.05;5.65;;;;;;;31.84;30.36;101159.84;4993361;28;20026;-82
2023/06/09 11:15:07;;;;;;;7.27;5.50;;;;;;;32.08;29.44;101163.75;4991837;28;20034;-82
2023/06/09 11:17:33;;;;;;;9.10;5.85;;;;;;;32.66;28.68;101166.28;4992007;28;20035;-82
2023/06/09 11:20:20;;;;;;;10.88;5.80;;;;;;;33.95;27.39;101160.28;4993580;28;20027;-82
2023/06/09 11:22:47;;;;;;;10.57;6.03;;;;;;;36.38;24.12;101164.06;4992461;28;20057;-83